Austinburg, Ohio
Current Conditions -  °F | °C
As of 11:53 AM on Tuesday 21 Oct 2014 (Local Time) from KHZY Reporting Station
Light Rain Light Rain  
Wind Chill: 47°   Ceiling: 1800
Heat Index: 49°   Visibility: 10mi
Dew Point: 46°   Wind: 6mph
Humidity: 90%   Direction: 340°NNW
Pressure: 29.92"   Gusts: NA
Location:  41.77°N, 80.85°W
Report Text: KHZY 211553Z AUTO 34005KT 10SM -RA BKN018 OVC026 09/08 A2992 RMK AO2 RAE09B39 SLP133 P0000 T00940078
Loading
Personal Weather Stations






























Interactive Weather Map
Tropical Storm Tracking
New forecast layout! Learn more

10-Day Weather Forecast

Advertisements
Track Severe Weather on mobile